Time;durP1;ratioP1;P1;durP2;ratioP2;P2;SDS_P1;SDS_P2;PMS_P1;PMS_P2;Temp;Humidity;BMP_temperature;BMP_pressure;BME280_temperature;BME280_humidity;BME280_pressure;Samples;Min_cycle;Max_cycle;Signal;HPM_P1;HPM_P2
2023/11/27 00:01:13;;;;;;;25.77;12.47;;;5.90;99.90;;;;;;5024232;28;20049;-84
2023/11/27 00:03:39;;;;;;;22.07;11.70;;;5.90;99.90;;;;;;5008985;28;20036;-84
2023/11/27 00:06:07;;;;;;;19.90;11.53;;;5.90;99.90;;;;;;5043203;28;20021;-84
2023/11/27 00:08:33;;;;;;;20.37;12.30;;;5.90;99.90;;;;;;5024326;28;20052;-84
2023/11/27 00:10:59;;;;;;;23.27;12.17;;;5.80;99.90;;;;;;5025999;28;20029;-85
2023/11/27 00:13:24;;;;;;;19.10;10.77;;;5.80;99.90;;;;;;5023460;28;20033;-84
2023/11/27 00:15:50;;;;;;;24.43;12.17;;;5.80;99.90;;;;;;5043614;28;20073;-84
2023/11/27 00:18:16;;;;;;;23.27;12.43;;;5.80;99.90;;;;;;5007512;28;20071;-84
2023/11/27 00:20:42;;;;;;;22.70;14.37;;;5.80;99.90;;;;;;5024763;28;20029;-84
2023/11/27 00:23:09;;;;;;;26.17;12.63;;;5.80;99.90;;;;;;5024594;28;20032;-84
2023/11/27 00:25:35;;;;;;;20.37;13.10;;;5.80;99.90;;;;;;5024475;28;20025;-84
2023/11/27 00:28:01;;;;;;;22.37;12.63;;;5.80;99.90;;;;;;5043223;28;20049;-84
2023/11/27 00:30:27;;;;;;;19.37;12.37;;;5.80;99.90;;;;;;5023117;28;20042;-85
2023/11/27 00:32:53;;;;;;;18.37;12.13;;;5.80;99.90;;;;;;5043297;28;20033;-85
2023/11/27 00:35:18;;;;;;;20.57;13.30;;;5.90;99.90;;;;;;5041728;28;20041;-85
2023/11/27 00:37:44;;;;;;;23.93;14.60;;;5.80;99.90;;;;;;5041929;28;20021;-85
2023/11/27 00:40:10;;;;;;;19.70;12.73;;;5.90;99.90;;;;;;5042009;28;20085;-85
2023/11/27 00:42:37;;;;;;;21.53;13.70;;;5.80;99.90;;;;;;5041571;28;20036;-85
2023/11/27 00:45:03;;;;;;;18.63;11.27;;;5.80;99.90;;;;;;5024937;28;20020;-85
2023/11/27 00:47:29;;;;;;;20.90;13.80;;;5.80;99.90;;;;;;5041263;28;20026;-84
2023/11/27 00:49:55;;;;;;;25.00;12.93;;;5.80;99.90;;;;;;5042962;28;20045;-84
2023/11/27 00:52:21;;;;;;;24.03;14.43;;;5.80;99.90;;;;;;5023323;28;20033;-85
2023/11/27 00:54:47;;;;;;;22.00;13.80;;;5.70;99.90;;;;;;5024608;28;20056;-84
2023/11/27 00:57:13;;;;;;;25.13;14.10;;;5.70;99.90;;;;;;5023217;28;20017;-85
2023/11/27 00:59:40;;;;;;;20.87;13.40;;;5.70;99.90;;;;;;5041919;28;20140;-85
2023/11/27 01:02:06;;;;;;;20.03;12.40;;;5.70;99.90;;;;;;5024377;28;20064;-84
2023/11/27 01:04:32;;;;;;;20.93;12.83;;;5.70;99.90;;;;;;5040881;28;20025;-85
2023/11/27 01:06:59;;;;;;;17.97;11.20;;;5.70;99.90;;;;;;5024739;28;20521;-83
2023/11/27 01:09:25;;;;;;;23.07;13.03;;;5.80;99.90;;;;;;5041051;28;20025;-83
2023/11/27 01:11:52;;;;;;;22.50;11.43;;;5.80;99.90;;;;;;5042073;28;20039;-84
2023/11/27 01:14:18;;;;;;;23.10;12.33;;;5.80;99.90;;;;;;5023480;28;20087;-84
2023/11/27 01:16:43;;;;;;;17.97;11.87;;;5.80;99.90;;;;;;5023733;28;20033;-82
2023/11/27 01:19:09;;;;;;;20.37;11.63;;;5.80;99.90;;;;;;5041883;28;20029;-82
2023/11/27 01:21:36;;;;;;;25.43;13.00;;;5.80;99.90;;;;;;5023095;28;20020;-82
2023/11/27 01:24:02;;;;;;;23.33;11.27;;;5.80;99.90;;;;;;5057621;28;20013;-82
2023/11/27 01:26:29;;;;;;;18.80;10.63;;;5.70;99.90;;;;;;5022558;28;20022;-82
2023/11/27 01:28:54;;;;;;;18.53;10.57;;;5.80;99.90;;;;;;5024447;28;20398;-82
2023/11/27 01:31:20;;;;;;;17.37;9.37;;;5.80;99.90;;;;;;5022566;28;20093;-82
2023/11/27 01:33:45;;;;;;;19.07;10.60;;;5.80;99.90;;;;;;5041688;28;20049;-82
2023/11/27 01:36:11;;;;;;;14.40;9.07;;;5.80;99.90;;;;;;5042033;28;20033;-81
2023/11/27 01:38:37;;;;;;;17.73;9.17;;;5.80;99.90;;;;;;5022746;28;20029;-83
2023/11/27 01:41:02;;;;;;;21.17;10.20;;;5.80;99.90;;;;;;5007513;28;20029;-83
2023/11/27 01:43:28;;;;;;;18.03;9.37;;;5.80;99.90;;;;;;5022245;28;20068;-83
2023/11/27 01:46:07;;;;;;;17.07;10.43;;;5.80;99.90;;;;;;5024214;28;20029;-83
2023/11/27 01:48:33;;;;;;;18.23;8.90;;;5.80;99.90;;;;;;5022733;28;20018;-83
2023/11/27 01:50:59;;;;;;;19.23;9.90;;;5.80;99.90;;;;;;5023177;28;20056;-84
2023/11/27 01:53:25;;;;;;;16.37;9.33;;;5.80;99.90;;;;;;5041515;28;20029;-83
2023/11/27 01:55:50;;;;;;;21.23;9.27;;;5.80;99.90;;;;;;5021649;28;20032;-83
2023/11/27 01:58:16;;;;;;;16.33;8.70;;;5.80;99.90;;;;;;5024177;28;20029;-83
2023/11/27 02:00:41;;;;;;;14.47;8.70;;;5.70;99.90;;;;;;5021876;28;20021;-84
2023/11/27 02:03:09;;;;;;;18.73;9.00;;;5.80;99.90;;;;;;5023664;28;20029;-83
2023/11/27 02:05:35;;;;;;;18.37;9.53;;;5.70;99.90;;;;;;5039628;28;20017;-83
2023/11/27 02:08:01;;;;;;;19.67;10.07;;;5.70;99.90;;;;;;5022997;28;20544;-84
2023/11/27 02:10:27;;;;;;;21.73;9.27;;;5.70;99.90;;;;;;5040756;28;20412;-84
2023/11/27 02:12:53;;;;;;;17.47;9.10;;;5.70;99.90;;;;;;5040232;28;20053;-83
2023/11/27 02:15:19;;;;;;;15.30;7.90;;;5.70;99.90;;;;;;5023555;28;20022;-84
2023/11/27 02:17:44;;;;;;;14.80;8.83;;;5.70;99.90;;;;;;5021773;28;20020;-84
2023/11/27 02:20:10;;;;;;;19.57;9.50;;;5.70;99.90;;;;;;5023319;28;20021;-83
2023/11/27 02:22:36;;;;;;;19.60;8.53;;;5.70;99.90;;;;;;5039809;28;20030;-85
2023/11/27 02:25:02;;;;;;;20.67;9.70;;;5.70;99.90;;;;;;5040890;28;20119;-84
2023/11/27 02:27:27;;;;;;;19.60;9.83;;;5.70;99.90;;;;;;5022633;28;20025;-84
2023/11/27 02:29:53;;;;;;;18.03;9.57;;;5.70;99.90;;;;;;5022434;28;20052;-85
2023/11/27 02:32:18;;;;;;;17.60;8.53;;;5.70;99.90;;;;;;5041484;28;20084;-84
2023/11/27 02:34:47;;;;;;;16.73;9.37;;;5.70;99.90;;;;;;5039393;28;20394;-85
2023/11/27 02:37:14;;;;;;;16.93;8.93;;;5.70;99.90;;;;;;5006691;28;20100;-84
2023/11/27 02:39:39;;;;;;;18.20;9.43;;;5.70;99.90;;;;;;5021566;28;20566;-84
2023/11/27 02:42:06;;;;;;;17.10;8.80;;;5.70;99.90;;;;;;5022185;28;20030;-85
2023/11/27 02:44:31;;;;;;;19.33;9.77;;;5.70;99.90;;;;;;5005720;28;20464;-84
2023/11/27 02:46:57;;;;;;;15.30;8.83;;;5.60;99.90;;;;;;5022308;28;20059;-84
2023/11/27 02:49:23;;;;;;;26.13;10.77;;;5.70;99.90;;;;;;5040926;28;20040;-84
2023/11/27 02:51:48;;;;;;;18.90;10.00;;;5.70;99.90;;;;;;5004581;28;20450;-84
2023/11/27 02:54:14;;;;;;;19.17;9.40;;;5.60;99.90;;;;;;5022955;28;20064;-84
2023/11/27 02:56:41;;;;;;;19.53;9.50;;;5.60;99.90;;;;;;5021579;28;20022;-84
2023/11/27 02:59:07;;;;;;;20.43;9.60;;;5.70;99.90;;;;;;5022647;28;20010;-85
2023/11/27 03:01:33;;;;;;;18.10;9.77;;;5.60;99.90;;;;;;5023890;28;20037;-83
2023/11/27 03:03:58;;;;;;;19.37;9.63;;;5.60;99.90;;;;;;5025524;28;20049;-83
2023/11/27 03:06:24;;;;;;;16.87;10.27;;;5.60;99.90;;;;;;5026449;28;20033;-84
2023/11/27 03:08:50;;;;;;;18.87;10.47;;;5.70;99.90;;;;;;5025033;28;20017;-83
2023/11/27 03:11:15;;;;;;;19.03;10.13;;;5.60;99.90;;;;;;5045055;28;20425;-83
2023/11/27 03:13:41;;;;;;;18.37;10.13;;;5.60;99.90;;;;;;5025251;28;20052;-84
2023/11/27 03:16:07;;;;;;;18.23;9.77;;;5.60;99.90;;;;;;5026372;28;20032;-84
2023/11/27 03:18:33;;;;;;;19.47;9.50;;;5.60;99.90;;;;;;5025315;28;20040;-83
2023/11/27 03:20:58;;;;;;;18.70;11.20;;;5.60;99.90;;;;;;5025936;28;20113;-84
2023/11/27 03:23:24;;;;;;;22.17;10.37;;;5.60;99.90;;;;;;5044366;28;20028;-83
2023/11/27 03:25:50;;;;;;;19.80;10.07;;;5.70;99.90;;;;;;5024960;28;20063;-83
2023/11/27 03:28:17;;;;;;;16.47;10.27;;;5.60;99.90;;;;;;5044683;28;20045;-83
2023/11/27 03:30:43;;;;;;;21.73;10.47;;;5.60;99.90;;;;;;5024784;28;20033;-82
2023/11/27 03:33:09;;;;;;;20.10;9.90;;;5.60;99.90;;;;;;5026088;28;20388;-82
2023/11/27 03:35:34;;;;;;;16.87;9.77;;;5.60;99.90;;;;;;5024875;28;20025;-82
2023/11/27 03:38:00;;;;;;;21.07;10.27;;;5.60;99.90;;;;;;5043721;28;20083;-82
2023/11/27 03:40:26;;;;;;;20.13;9.13;;;5.60;99.90;;;;;;5043903;28;20081;-84
2023/11/27 03:42:51;;;;;;;18.73;11.27;;;5.60;99.90;;;;;;5042490;28;20032;-82
2023/11/27 03:45:17;;;;;;;16.97;9.27;;;5.60;99.90;;;;;;5026408;28;20017;-84
2023/11/27 03:47:43;;;;;;;21.67;10.70;;;5.60;99.90;;;;;;5023990;28;20028;-84
2023/11/27 03:50:10;;;;;;;21.37;10.27;;;5.60;99.90;;;;;;5026030;28;20038;-84
2023/11/27 03:52:36;;;;;;;16.60;9.93;;;5.50;99.90;;;;;;5042432;28;20021;-84
2023/11/27 03:55:02;;;;;;;18.37;10.03;;;5.60;99.90;;;;;;5025462;28;20017;-83
2023/11/27 03:57:28;;;;;;;17.43;10.70;;;5.60;99.90;;;;;;5043343;28;20032;-83
2023/11/27 03:59:54;;;;;;;20.23;11.00;;;5.50;99.90;;;;;;5042418;28;20018;-83
2023/11/27 04:02:20;;;;;;;20.23;10.23;;;5.60;99.90;;;;;;5025721;28;20049;-82
2023/11/27 04:04:46;;;;;;;17.37;10.93;;;5.60;99.90;;;;;;5023950;28;20056;-83
2023/11/27 04:07:12;;;;;;;17.93;9.90;;;5.60;99.90;;;;;;5043597;28;20026;-84
2023/11/27 04:09:38;;;;;;;16.23;9.13;;;5.60;99.90;;;;;;5024439;28;20116;-83
2023/11/27 04:12:05;;;;;;;17.37;8.97;;;5.50;99.90;;;;;;5024836;28;20041;-82
2023/11/27 04:14:31;;;;;;;16.13;8.97;;;5.50;99.90;;;;;;5042620;28;20498;-81
2023/11/27 04:16:57;;;;;;;14.30;8.27;;;5.50;99.90;;;;;;5024579;28;20021;-81
2023/11/27 04:19:22;;;;;;;16.57;9.57;;;5.50;99.90;;;;;;5043030;28;20026;-82
2023/11/27 04:21:48;;;;;;;14.97;8.90;;;5.50;99.90;;;;;;5023968;28;20017;-83
2023/11/27 04:24:14;;;;;;;14.60;8.20;;;5.50;99.90;;;;;;5025800;28;20022;-82
2023/11/27 04:26:39;;;;;;;12.50;7.30;;;5.50;99.90;;;;;;5024509;28;20022;-82
2023/11/27 04:29:05;;;;;;;16.67;7.33;;;5.50;99.90;;;;;;5042964;28;20085;-82
2023/11/27 04:31:32;;;;;;;13.50;7.00;;;5.50;99.90;;;;;;5024584;28;20041;-82
2023/11/27 04:33:58;;;;;;;13.17;7.13;;;5.50;99.90;;;;;;5024493;28;20021;-82
2023/11/27 04:36:23;;;;;;;14.53;7.87;;;5.60;99.90;;;;;;5025706;28;20079;-82
2023/11/27 04:38:49;;;;;;;13.17;7.83;;;5.50;99.90;;;;;;5023547;28;20037;-82
2023/11/27 04:41:15;;;;;;;15.93;7.57;;;5.50;99.90;;;;;;5024934;28;20028;-82
2023/11/27 04:43:41;;;;;;;13.90;7.80;;;5.50;99.90;;;;;;5023578;28;20021;-82
2023/11/27 04:46:07;;;;;;;13.70;8.00;;;5.50;99.90;;;;;;5024902;28;20034;-82
2023/11/27 04:48:34;;;;;;;13.53;7.23;;;5.40;99.90;;;;;;5041668;28;20021;-82
2023/11/27 04:51:01;;;;;;;13.07;7.37;;;5.40;99.90;;;;;;5024066;28;20109;-83
2023/11/27 04:53:27;;;;;;;10.93;7.30;;;5.40;99.90;;;;;;5042604;28;20030;-81
2023/11/27 04:55:53;;;;;;;11.83;6.93;;;5.50;99.90;;;;;;5041357;28;20320;-81
2023/11/27 04:58:19;;;;;;;14.13;7.70;;;5.40;99.90;;;;;;5043009;28;20017;-83
2023/11/27 05:00:45;;;;;;;16.40;7.43;;;5.30;99.90;;;;;;5041130;28;20032;-81
2023/11/27 05:03:11;;;;;;;13.67;6.90;;;5.30;99.90;;;;;;5041937;28;20052;-81
2023/11/27 05:05:36;;;;;;;10.10;6.83;;;5.30;99.90;;;;;;5023592;28;20018;-82
2023/11/27 05:08:02;;;;;;;13.90;7.43;;;5.30;99.90;;;;;;5023928;28;20132;-82
2023/11/27 05:10:28;;;;;;;12.60;6.50;;;5.30;99.90;;;;;;5024366;28;20109;-82
2023/11/27 05:12:53;;;;;;;11.23;6.57;;;5.30;99.90;;;;;;5023205;28;20048;-83
2023/11/27 05:15:19;;;;;;;11.03;6.57;;;5.30;99.90;;;;;;5024381;28;20022;-82
2023/11/27 05:17:47;;;;;;;10.67;6.30;;;5.30;99.90;;;;;;5040771;28;20029;-82
2023/11/27 05:20:13;;;;;;;11.27;6.80;;;5.30;99.90;;;;;;5024632;28;20534;-82
2023/11/27 05:22:38;;;;;;;16.17;6.53;;;5.20;99.90;;;;;;5022583;28;20492;-82
2023/11/27 05:25:05;;;;;;;12.80;6.80;;;5.20;99.90;;;;;;5042081;28;20014;-82
2023/11/27 05:27:31;;;;;;;11.50;5.87;;;5.20;99.90;;;;;;5041845;28;20017;-82
2023/11/27 05:29:56;;;;;;;13.67;6.23;;;5.30;99.90;;;;;;5040748;28;20060;-80
2023/11/27 05:32:22;;;;;;;10.00;6.13;;;5.20;99.90;;;;;;5024519;28;20387;-82
2023/11/27 05:34:48;;;;;;;10.70;5.77;;;5.20;99.90;;;;;;5022753;28;20164;-82
2023/11/27 05:37:13;;;;;;;8.27;4.60;;;5.20;99.90;;;;;;5023973;28;20021;-83
2023/11/27 05:39:41;;;;;;;10.70;5.63;;;5.20;99.90;;;;;;5022660;28;20014;-84
2023/11/27 05:42:11;;;;;;;11.57;5.50;;;5.30;99.90;;;;;;5023476;28;20018;-83
2023/11/27 05:44:40;;;;;;;10.63;5.53;;;5.20;99.90;;;;;;5041019;28;20033;-82
2023/11/27 05:47:06;;;;;;;10.00;5.20;;;5.20;99.90;;;;;;5040568;28;20047;-82
2023/11/27 05:49:32;;;;;;;7.63;4.87;;;5.20;99.90;;;;;;5042202;28;20057;-84
2023/11/27 05:51:58;;;;;;;9.93;5.37;;;5.20;99.90;;;;;;5022332;28;20072;-82
2023/11/27 05:54:24;;;;;;;8.83;4.77;;;5.20;99.90;;;;;;5041817;28;20092;-84
2023/11/27 05:56:50;;;;;;;8.67;5.20;;;5.20;99.90;;;;;;5022367;28;20034;-83
2023/11/27 05:59:16;;;;;;;10.07;5.90;;;5.20;99.90;;;;;;5041371;28;20044;-83
2023/11/27 06:01:42;;;;;;;10.17;5.70;;;5.20;99.90;;;;;;5040651;28;20042;-83
2023/11/27 06:04:08;;;;;;;8.93;5.27;;;5.20;99.90;;;;;;5040174;28;20089;-83
2023/11/27 06:06:34;;;;;;;12.17;5.53;;;5.20;99.90;;;;;;5023846;28;20036;-83
2023/11/27 06:09:00;;;;;;;10.27;6.13;;;5.20;99.90;;;;;;5039617;28;20097;-84
2023/11/27 06:11:25;;;;;;;9.93;4.77;;;5.20;99.90;;;;;;5023844;28;20383;-83
2023/11/27 06:13:51;;;;;;;7.00;4.70;;;5.10;99.90;;;;;;5040207;28;20102;-84
2023/11/27 06:16:17;;;;;;;8.77;4.60;;;5.20;99.90;;;;;;5041017;28;20025;-83
2023/11/27 06:18:42;;;;;;;12.33;6.50;;;5.20;99.90;;;;;;5022330;28;20018;-83
2023/11/27 06:21:10;;;;;;;10.23;5.50;;;5.20;99.90;;;;;;5023550;28;20021;-84
2023/11/27 06:23:36;;;;;;;8.63;5.23;;;5.20;99.90;;;;;;5041581;28;20052;-83
2023/11/27 06:26:01;;;;;;;7.53;4.43;;;5.20;99.90;;;;;;5039506;28;20017;-84
2023/11/27 06:28:27;;;;;;;11.33;4.70;;;5.20;99.90;;;;;;5023481;28;20021;-84
2023/11/27 06:30:54;;;;;;;8.00;3.83;;;5.20;99.90;;;;;;5017731;28;20029;-84
2023/11/27 06:33:20;;;;;;;8.20;4.87;;;5.20;99.90;;;;;;5022153;28;20018;-84
2023/11/27 06:35:48;;;;;;;6.70;3.60;;;5.20;99.90;;;;;;5020325;28;20026;-84
2023/11/27 06:38:16;;;;;;;8.00;3.73;;;5.20;99.90;;;;;;5030163;28;20052;-84
2023/11/27 06:40:42;;;;;;;9.10;4.13;;;5.20;99.90;;;;;;5022857;28;20028;-84
2023/11/27 06:43:08;;;;;;;9.97;3.90;;;5.30;99.90;;;;;;5038972;28;20108;-85
2023/11/27 06:45:34;;;;;;;6.93;3.80;;;5.20;99.90;;;;;;5038747;28;20037;-83
2023/11/27 06:48:00;;;;;;;7.73;4.33;;;5.30;99.90;;;;;;5036472;28;20080;-85
2023/11/27 06:50:26;;;;;;;6.93;4.03;;;5.30;99.90;;;;;;5003794;28;20042;-83
2023/11/27 06:52:51;;;;;;;9.07;4.53;;;5.30;99.90;;;;;;5019027;28;20412;-84
2023/11/27 06:55:17;;;;;;;8.03;4.10;;;5.30;99.90;;;;;;5025687;28;20049;-84
2023/11/27 06:57:43;;;;;;;7.33;4.10;;;5.30;99.90;;;;;;5020959;28;20034;-84
2023/11/27 07:00:10;;;;;;;10.67;4.03;;;5.20;99.90;;;;;;5001688;28;20504;-84
2023/11/27 07:02:37;;;;;;;9.13;3.70;;;5.30;99.90;;;;;;5021539;28;20041;-84
2023/11/27 07:05:05;;;;;;;6.57;3.60;;;5.30;99.90;;;;;;5001811;28;20347;-84
2023/11/27 07:07:30;;;;;;;6.17;3.57;;;5.30;99.90;;;;;;5003354;28;20030;-84
2023/11/27 07:09:56;;;;;;;5.73;3.60;;;5.30;99.90;;;;;;5001928;28;20052;-84
2023/11/27 07:12:22;;;;;;;6.97;3.97;;;5.30;99.90;;;;;;5018994;28;20030;-84
2023/11/27 07:14:51;;;;;;;8.83;3.80;;;5.30;99.90;;;;;;5002434;28;20019;-82
2023/11/27 07:17:18;;;;;;;7.60;3.83;;;5.30;99.90;;;;;;4985848;28;20506;-84
2023/11/27 07:19:43;;;;;;;7.07;3.83;;;5.20;99.90;;;;;;5020999;28;20053;-83
2023/11/27 07:22:09;;;;;;;7.63;3.83;;;5.30;99.90;;;;;;5001591;28;20462;-84
2023/11/27 07:24:35;;;;;;;8.27;4.20;;;5.20;99.90;;;;;;5002152;28;20022;-85
2023/11/27 07:27:02;;;;;;;6.40;4.00;;;5.20;99.90;;;;;;5016588;28;20037;-84
2023/11/27 07:29:28;;;;;;;8.43;4.17;;;5.20;99.90;;;;;;5039824;28;20375;-84
2023/11/27 07:31:54;;;;;;;7.90;4.07;;;5.20;99.90;;;;;;5040355;28;20048;-85
2023/11/27 07:34:21;;;;;;;7.30;4.40;;;5.20;99.90;;;;;;5039343;28;20021;-85
2023/11/27 07:36:47;;;;;;;8.60;3.63;;;5.20;99.90;;;;;;5040775;28;20025;-85
2023/11/27 07:39:13;;;;;;;6.43;3.57;;;5.20;99.90;;;;;;5020633;28;20030;-85
2023/11/27 07:41:39;;;;;;;6.80;3.83;;;5.20;99.90;;;;;;5022059;28;20557;-85
2023/11/27 07:44:05;;;;;;;6.70;3.50;;;5.20;99.90;;;;;;5021107;28;20045;-86
2023/11/27 07:46:31;;;;;;;7.40;3.53;;;5.20;99.90;;;;;;5022250;28;20025;-85
2023/11/27 07:48:56;;;;;;;8.40;3.77;;;5.20;99.90;;;;;;5043550;28;20017;-84
2023/11/27 07:51:22;;;;;;;9.20;3.70;;;5.20;99.90;;;;;;5042724;28;20025;-85
2023/11/27 07:53:48;;;;;;;6.80;3.43;;;5.20;99.90;;;;;;5026370;28;20029;-84
2023/11/27 07:56:23;;;;;;;6.73;3.33;;;5.20;99.90;;;;;;5024303;28;20017;-84
2023/11/27 07:58:49;;;;;;;6.93;3.77;;;5.20;99.90;;;;;;5025734;28;20036;-84
2023/11/27 08:01:16;;;;;;;6.40;3.37;;;5.20;99.90;;;;;;5024527;28;20055;-85
2023/11/27 08:03:42;;;;;;;5.03;2.93;;;5.20;99.90;;;;;;5024720;28;20111;-85
2023/11/27 08:06:09;;;;;;;6.73;3.67;;;5.20;99.90;;;;;;5024990;28;20044;-84
2023/11/27 08:08:34;;;;;;;7.53;3.27;;;5.20;99.90;;;;;;5041823;28;20029;-85
2023/11/27 08:11:00;;;;;;;5.33;3.03;;;5.30;99.90;;;;;;5040914;28;20033;-85
2023/11/27 08:13:26;;;;;;;6.23;3.13;;;5.30;99.90;;;;;;5021664;28;20029;-86
2023/11/27 08:15:53;;;;;;;5.90;3.40;;;5.30;99.90;;;;;;5040858;28;20125;-85
2023/11/27 08:18:19;;;;;;;10.30;3.43;;;5.30;99.90;;;;;;5041556;28;20521;-84
2023/11/27 08:20:45;;;;;;;5.97;3.10;;;5.30;99.90;;;;;;5024653;28;20441;-85
2023/11/27 08:23:12;;;;;;;6.10;3.20;;;5.30;99.90;;;;;;5008249;28;20022;-85
2023/11/27 08:25:41;;;;;;;7.17;3.70;;;5.30;99.90;;;;;;5023582;28;20022;-85
2023/11/27 08:28:07;;;;;;;6.17;3.40;;;5.30;99.90;;;;;;5043576;28;20467;-84
2023/11/27 08:30:33;;;;;;;5.60;2.67;;;5.30;99.90;;;;;;5022910;28;20029;-85
2023/11/27 08:33:00;;;;;;;7.33;3.40;;;5.30;99.90;;;;;;5025154;28;20049;-85
2023/11/27 08:35:26;;;;;;;5.50;3.00;;;5.40;99.90;;;;;;5041108;28;20026;-85
2023/11/27 08:37:52;;;;;;;6.60;3.00;;;5.40;99.90;;;;;;5024709;28;20017;-85
2023/11/27 08:40:18;;;;;;;4.87;2.80;;;5.40;99.90;;;;;;5042445;28;20025;-85
2023/11/27 08:42:43;;;;;;;7.53;3.40;;;5.40;99.90;;;;;;5023875;28;20044;-84
2023/11/27 08:45:10;;;;;;;5.30;2.90;;;5.40;99.90;;;;;;5025525;28;20064;-84
2023/11/27 08:47:52;;;;;;;6.30;3.07;;;5.40;99.90;;;;;;5006719;28;20025;-85
2023/11/27 08:50:27;;;;;;;5.87;3.13;;;5.40;99.90;;;;;;5024715;28;20429;-85
2023/11/27 08:52:57;;;;;;;5.33;3.00;;;5.40;99.90;;;;;;5024123;28;20035;-85
2023/11/27 08:55:29;;;;;;;6.27;3.00;;;5.50;99.90;;;;;;5023986;28;20364;-85
2023/11/27 08:58:01;;;;;;;5.47;3.17;;;5.50;99.90;;;;;;5024876;28;20021;-85
2023/11/27 09:00:34;;;;;;;5.60;3.17;;;5.50;99.90;;;;;;5040746;28;20073;-85
2023/11/27 09:03:00;;;;;;;4.80;3.00;;;5.50;99.90;;;;;;5041606;28;20056;-85
2023/11/27 09:05:30;;;;;;;8.70;3.33;;;5.50;99.90;;;;;;5030644;28;20083;-85
2023/11/27 09:07:57;;;;;;;5.53;3.23;;;5.60;99.90;;;;;;5042255;28;20029;-85
2023/11/27 09:10:24;;;;;;;6.60;3.93;;;5.50;99.90;;;;;;5041731;28;20664;-84
2023/11/27 09:12:50;;;;;;;4.90;2.97;;;5.50;99.90;;;;;;5040391;28;20018;-85
2023/11/27 09:15:17;;;;;;;6.63;3.27;;;5.50;99.90;;;;;;5023668;28;20470;-84
2023/11/27 09:17:43;;;;;;;6.50;3.40;;;5.60;99.90;;;;;;5022461;28;20045;-85
2023/11/27 09:20:11;;;;;;;8.53;3.10;;;5.50;99.90;;;;;;5042418;28;20018;-85
2023/11/27 09:22:37;;;;;;;5.37;3.13;;;5.60;99.90;;;;;;5041087;28;20117;-85
2023/11/27 09:25:08;;;;;;;5.17;2.90;;;5.60;99.90;;;;;;5041759;28;20588;-85
2023/11/27 09:27:38;;;;;;;5.93;3.03;;;5.60;99.90;;;;;;5041462;28;20045;-84
2023/11/27 09:30:07;;;;;;;4.93;2.90;;;5.60;99.90;;;;;;5040353;28;20052;-84
2023/11/27 09:32:36;;;;;;;8.43;3.10;;;5.60;99.90;;;;;;5042560;28;20082;-85
2023/11/27 09:35:04;;;;;;;5.77;3.07;;;5.60;99.90;;;;;;5038359;28;20025;-86
2023/11/27 09:37:32;;;;;;;4.83;2.60;;;5.60;99.90;;;;;;5042013;28;20152;-84
2023/11/27 09:39:59;;;;;;;4.10;2.30;;;5.60;99.90;;;;;;5040710;28;20079;-84
2023/11/27 09:42:34;;;;;;;4.87;2.80;;;5.70;99.90;;;;;;5045468;28;20033;-85
2023/11/27 09:45:01;;;;;;;4.43;2.70;;;5.60;99.90;;;;;;5024649;28;20030;-84
2023/11/27 09:47:28;;;;;;;9.00;3.90;;;5.70;99.90;;;;;;5039803;28;20030;-85
2023/11/27 09:49:59;;;;;;;4.60;2.77;;;5.70;99.90;;;;;;5024193;28;20040;-84
2023/11/27 09:52:31;;;;;;;5.73;2.83;;;5.70;99.90;;;;;;5022585;28;20064;-85
2023/11/27 09:55:04;;;;;;;4.80;2.77;;;5.70;99.90;;;;;;5023899;28;20061;-85
2023/11/27 09:57:32;;;;;;;4.90;2.70;;;5.70;99.90;;;;;;5041497;28;20033;-85
2023/11/27 10:00:07;;;;;;;4.70;2.80;;;5.70;99.90;;;;;;5040303;28;20037;-85
2023/11/27 10:02:33;;;;;;;3.80;2.37;;;5.70;99.90;;;;;;5023687;28;20064;-85
2023/11/27 10:05:04;;;;;;;4.23;2.43;;;5.70;99.90;;;;;;5055069;28;20037;-84
2023/11/27 10:07:34;;;;;;;5.50;2.80;;;5.80;99.90;;;;;;5041376;28;20120;-85
2023/11/27 10:10:10;;;;;;;4.90;2.43;;;5.80;99.90;;;;;;5039913;28;20423;-84
2023/11/27 10:12:35;;;;;;;4.60;2.33;;;5.80;99.90;;;;;;5022456;28;20460;-84
2023/11/27 10:15:02;;;;;;;5.90;2.60;;;5.80;99.90;;;;;;5023681;28;20026;-84
2023/11/27 10:17:29;;;;;;;4.57;2.97;;;5.80;99.90;;;;;;5039426;28;20028;-84
2023/11/27 10:19:58;;;;;;;5.30;2.90;;;5.90;99.90;;;;;;5041602;28;20517;-84
2023/11/27 10:22:29;;;;;;;9.03;3.10;;;5.90;99.90;;;;;;5021844;28;20025;-84
2023/11/27 10:24:58;;;;;;;4.40;2.27;;;5.90;99.90;;;;;;5007267;28;20030;-85
2023/11/27 10:27:25;;;;;;;4.73;2.63;;;5.90;99.90;;;;;;5040681;28;20025;-84
2023/11/27 10:29:50;;;;;;;3.93;2.40;;;5.90;99.90;;;;;;5022049;28;20044;-84
2023/11/27 10:32:17;;;;;;;4.73;2.43;;;5.90;99.90;;;;;;5041502;28;20029;-83
2023/11/27 10:34:43;;;;;;;4.87;2.77;;;6.00;99.90;;;;;;5039241;28;20107;-85
2023/11/27 10:37:08;;;;;;;4.97;2.90;;;6.00;99.90;;;;;;5041370;28;20026;-85
2023/11/27 10:39:34;;;;;;;6.07;2.33;;;6.00;99.90;;;;;;5039820;28;20096;-85
2023/11/27 10:42:03;;;;;;;5.33;2.90;;;6.00;99.90;;;;;;5040691;28;20033;-85
2023/11/27 10:44:36;;;;;;;4.20;2.60;;;6.00;99.90;;;;;;5040423;28;20013;-84
2023/11/27 10:47:10;;;;;;;4.07;2.43;;;6.00;99.90;;;;;;5021828;28;20472;-85
2023/11/27 10:49:39;;;;;;;;;;;6.10;99.90;;;;;;5042088;28;20060;-85
2023/11/27 10:52:06;;;;;;;4.57;2.83;;;6.00;99.90;;;;;;5039384;28;19905;-85
2023/11/27 10:54:34;;;;;;;4.50;2.37;;;6.10;99.90;;;;;;5023221;28;20073;-84
2023/11/27 10:57:06;;;;;;;5.10;2.57;;;6.10;99.90;;;;;;5039717;28;20056;-84
2023/11/27 10:59:35;;;;;;;4.17;2.30;;;6.10;99.90;;;;;;5022227;28;20052;-84
2023/11/27 11:02:04;;;;;;;4.80;3.00;;;6.10;99.90;;;;;;5023016;28;20088;-84
2023/11/27 11:04:35;;;;;;;4.37;2.27;;;6.10;99.90;;;;;;5021530;28;20017;-84
2023/11/27 11:07:08;;;;;;;3.97;2.47;;;6.10;99.90;;;;;;5041225;28;20068;-84
2023/11/27 11:09:36;;;;;;;5.20;2.73;;;6.10;99.90;;;;;;5039281;28;20081;-84
2023/11/27 11:12:05;;;;;;;3.93;1.97;;;6.20;99.90;;;;;;5022668;28;20025;-84
2023/11/27 11:14:32;;;;;;;4.77;2.60;;;6.20;99.90;;;;;;5040711;28;20076;-85
2023/11/27 11:17:12;;;;;;;4.63;2.37;;;6.20;99.90;;;;;;5021824;28;20026;-84
2023/11/27 11:19:41;;;;;;;4.20;2.43;;;6.20;99.90;;;;;;5023869;28;20033;-84
2023/11/27 11:22:26;;;;;;;5.33;2.93;;;6.20;99.90;;;;;;5040025;28;20422;-85
2023/11/27 11:25:20;;;;;;;4.03;2.60;;;6.30;99.90;;;;;;5026566;28;20056;-84
2023/11/27 11:28:26;;;;;;;4.82;2.70;;;6.30;99.90;;;;;;5038957;28;20049;-84
2023/11/27 11:31:15;;;;;;;4.37;2.47;;;6.30;99.90;;;;;;5007915;28;20041;-84
2023/11/27 11:33:41;;;;;;;5.77;2.40;;;6.30;99.90;;;;;;5025902;28;20033;-85
2023/11/27 11:36:12;;;;;;;4.33;2.50;;;6.30;99.90;;;;;;5044116;28;20056;-84
2023/11/27 11:38:44;;;;;;;5.00;2.20;;;6.40;99.90;;;;;;5042830;28;20483;-84
2023/11/27 11:41:10;;;;;;;4.60;2.73;;;6.40;99.90;;;;;;5044388;28;20033;-84
2023/11/27 11:43:42;;;;;;;3.63;2.13;;;6.40;99.90;;;;;;5024588;28;20049;-84
2023/11/27 11:46:24;;;;;;;5.80;2.67;;;6.40;99.90;;;;;;5026293;28;20043;-84
2023/11/27 11:48:57;;;;;;;6.03;2.43;;;6.50;99.90;;;;;;5043581;28;20026;-84
2023/11/27 11:51:26;;;;;;;4.43;2.67;;;6.40;99.90;;;;;;5024618;28;20033;-83
2023/11/27 11:53:53;;;;;;;4.17;2.40;;;6.40;99.90;;;;;;5026260;28;20036;-84
2023/11/27 11:56:20;;;;;;;4.87;2.63;;;6.50;99.90;;;;;;5024129;28;20017;-84
2023/11/27 11:58:56;;;;;;;3.73;2.20;;;6.50;99.90;;;;;;5026035;28;20026;-84
2023/11/27 12:01:34;;;;;;;3.87;2.20;;;6.50;99.90;;;;;;5024872;28;20052;-84
2023/11/27 12:04:11;;;;;;;4.40;2.23;;;6.50;99.90;;;;;;5024889;28;20023;-84
2023/11/27 12:06:41;;;;;;;3.57;2.13;;;6.50;99.90;;;;;;5026307;28;20022;-84
2023/11/27 12:09:09;;;;;;;4.30;2.03;;;6.50;99.90;;;;;;5023994;28;20076;-84
2023/11/27 12:11:35;;;;;;;4.33;2.37;;;6.60;99.90;;;;;;5043860;28;20028;-84
2023/11/27 12:14:14;;;;;;;3.63;2.07;;;6.60;99.90;;;;;;5024237;28;20021;-85
2023/11/27 12:16:41;;;;;;;4.03;2.00;;;6.60;99.90;;;;;;5042984;28;20556;-84
2023/11/27 12:19:07;;;;;;;3.40;2.10;;;6.60;99.90;;;;;;5043884;28;20021;-84
2023/11/27 12:21:36;;;;;;;4.10;2.27;;;6.70;99.90;;;;;;5024218;28;20014;-85
2023/11/27 12:24:02;;;;;;;4.80;2.00;;;6.70;99.90;;;;;;5043891;28;20017;-85
2023/11/27 12:26:27;;;;;;;3.63;2.13;;;6.70;99.90;;;;;;5023481;28;20053;-84
2023/11/27 12:28:55;;;;;;;3.30;2.07;;;6.70;99.90;;;;;;5025377;28;20056;-84
2023/11/27 12:31:22;;;;;;;4.30;2.23;;;6.70;99.90;;;;;;5024317;28;20033;-84
2023/11/27 12:33:49;;;;;;;4.47;2.00;;;6.80;99.90;;;;;;5023296;28;20021;-84
2023/11/27 12:36:20;;;;;;;3.80;2.13;;;6.80;99.90;;;;;;5025595;28;20036;-84
2023/11/27 12:38:53;;;;;;;4.70;2.23;;;6.80;99.90;;;;;;5023561;28;20021;-84
2023/11/27 12:41:32;;;;;;;4.17;2.50;;;6.80;99.90;;;;;;5024935;28;20107;-85
2023/11/27 12:44:13;;;;;;;4.50;2.30;;;6.80;99.90;;;;;;5041983;28;20018;-84
2023/11/27 12:46:43;;;;;;;3.70;2.30;;;6.80;99.90;;;;;;5024161;28;20043;-85
2023/11/27 12:49:17;;;;;;;3.80;2.20;;;6.80;99.90;;;;;;5043567;28;20021;-83
2023/11/27 12:51:46;;;;;;;3.83;2.40;;;6.80;99.90;;;;;;5023403;28;20038;-85